Terminal Aerodrome Forecast
Issued by NWS

Home | Current Version | Previous Version | Text Only | Print | Product List | Glossary On
Versions: 1 2 3 4 5 6 7 8 9 10 11 12 13 14 15 16 17 18 19 20 21 22 23 24 25 26 27 28 29 30 31 32 33 34 35 36 37
489
FTUS44 KOHX 212325
TAFCKV
TAF
KCKV 212325Z 2200/2224 17006KT P6SM SCT040 BKN250
     FM220700 12005KT P6SM VCTS OVC025CB
     FM220900 14005KT 2SM -TSRA BR OVC007CB
     FM221100 13005KT 6SM -SHRA BR OVC015
     FM221400 17008KT P6SM VCSH OVC015
     FM221900 19010G17KT 5SM -SHRA OVC010=

USA.gov is the U.S. government's official web portal to all federal, state and local government web resources and services.